createdAt,value
2023-01-18T00:01:14.295Z,-0.18
2023-01-18T00:03:42.773Z,-0.17
2023-01-18T00:06:12.395Z,-0.15
2023-01-18T00:08:42.449Z,-0.17
2023-01-18T00:11:12.538Z,-0.20
2023-01-18T00:13:42.432Z,-0.29
2023-01-18T00:16:14.321Z,-0.21
2023-01-18T00:18:42.632Z,-0.23
2023-01-18T00:21:12.545Z,-0.25
2023-01-18T00:23:40.601Z,-0.26
2023-01-18T00:26:11.949Z,-0.24
2023-01-18T00:28:42.152Z,-0.26
2023-01-18T00:31:11.473Z,-0.33
2023-01-18T00:33:39.729Z,-0.30
2023-01-18T00:36:08.391Z,-0.27
2023-01-18T00:38:36.408Z,-0.26
2023-01-18T00:41:04.454Z,-0.33
2023-01-18T00:43:40.526Z,-0.29
2023-01-18T00:46:11.879Z,-0.31
2023-01-18T00:48:41.128Z,-0.27
2023-01-18T00:51:10.450Z,-0.26
2023-01-18T00:53:39.276Z,-0.26
2023-01-18T00:56:08.869Z,-0.30
2023-01-18T00:58:37.594Z,-0.33
2023-01-18T01:01:06.587Z,-0.33
2023-01-18T01:03:50.044Z,-0.37
2023-01-18T01:06:39.253Z,-0.39
2023-01-18T01:09:07.301Z,-0.41
2023-01-18T01:11:35.265Z,-0.40
2023-01-18T01:14:20.876Z,-0.48
2023-01-18T01:17:05.920Z,-0.47
2023-01-18T01:19:52.712Z,-0.47
2023-01-18T01:22:38.219Z,-0.49
2023-01-18T01:25:24.391Z,-0.52
2023-01-18T01:27:53.579Z,-0.54
2023-01-18T01:30:21.630Z,-0.51
2023-01-18T01:32:49.721Z,-0.51
2023-01-18T01:35:19.252Z,-0.52
2023-01-18T01:37:47.219Z,-0.50
2023-01-18T01:40:15.185Z,-0.48
2023-01-18T01:42:43.259Z,-0.51
2023-01-18T01:45:12.460Z,-0.55
2023-01-18T01:47:43.266Z,-0.52
2023-01-18T01:50:20.997Z,-0.58
2023-01-18T01:52:49.799Z,-0.55
2023-01-18T01:55:24.039Z,-0.57
2023-01-18T01:57:56.858Z,-0.59
2023-01-18T02:00:26.071Z,-0.59
2023-01-18T02:02:57.452Z,-0.62
2023-01-18T02:05:27.780Z,-0.59
2023-01-18T02:07:59.595Z,-0.61
2023-01-18T02:10:27.797Z,-0.66
2023-01-18T02:12:57.029Z,-0.62
2023-01-18T02:15:33.452Z,-0.64
2023-01-18T02:18:15.684Z,-0.67
2023-01-18T02:21:14.394Z,-0.67
2023-01-18T02:24:20.518Z,-0.67
2023-01-18T02:27:00.844Z,-0.66
2023-01-18T02:29:46.330Z,-0.66
2023-01-18T02:32:24.956Z,-0.73
2023-01-18T02:35:00.697Z,-0.68
2023-01-18T02:37:40.665Z,-0.67
2023-01-18T02:40:17.138Z,-0.68
2023-01-18T02:43:04.470Z,-0.71
2023-01-18T02:45:59.670Z,-0.72
2023-01-18T02:48:34.786Z,-0.69
2023-01-18T02:51:03.031Z,-0.71
2023-01-18T02:53:32.271Z,-0.72
2023-01-18T02:56:06.480Z,-0.74
2023-01-18T02:58:38.663Z,-0.72
2023-01-18T03:01:11.914Z,-0.78
2023-01-18T03:03:42.564Z,-0.76
2023-01-18T03:06:10.845Z,-0.75
2023-01-18T03:08:42.234Z,-0.81
2023-01-18T03:11:15.921Z,-0.78
2023-01-18T03:13:50.296Z,-0.76
2023-01-18T03:16:22.880Z,-0.75
2023-01-18T03:19:01.625Z,-0.77
2023-01-18T03:21:42.020Z,-0.72
2023-01-18T03:24:11.319Z,-0.74
2023-01-18T03:26:41.902Z,-0.73
2023-01-18T03:29:31.066Z,-0.75
2023-01-18T03:32:21.987Z,-0.77
2023-01-18T03:34:55.635Z,-0.75
2023-01-18T03:37:30.589Z,-0.78
2023-01-18T03:40:02.741Z,-0.80
2023-01-18T03:42:35.806Z,-0.72
2023-01-18T03:45:09.987Z,-0.72
2023-01-18T03:47:40.263Z,-0.72
2023-01-18T03:50:09.337Z,-0.73
2023-01-18T03:52:42.722Z,-0.69
2023-01-18T03:55:17.221Z,-0.67
2023-01-18T03:57:50.309Z,-0.70
2023-01-18T04:00:19.453Z,-0.66
2023-01-18T04:02:50.666Z,-0.70
2023-01-18T04:05:19.850Z,-0.66
2023-01-18T04:07:48.227Z,-0.67
2023-01-18T04:10:16.317Z,-0.71
2023-01-18T04:12:44.508Z,-0.68
2023-01-18T04:15:13.139Z,-0.65
2023-01-18T04:17:41.256Z,-0.62
2023-01-18T04:20:12.373Z,-0.65
2023-01-18T04:22:40.294Z,-0.65
2023-01-18T04:25:08.746Z,-0.62
2023-01-18T04:27:36.822Z,-0.65
2023-01-18T04:30:06.403Z,-0.65
2023-01-18T04:35:18.114Z,-0.62
2023-01-18T04:37:52.976Z,-0.61
2023-01-18T04:40:21.032Z,-0.68
2023-01-18T04:42:54.326Z,-0.69
2023-01-18T04:45:22.368Z,-0.61
2023-01-18T04:47:50.334Z,-0.62
2023-01-18T04:50:19.963Z,-0.64
2023-01-18T04:52:48.154Z,-0.64
2023-01-18T04:55:16.709Z,-0.65
2023-01-18T04:57:45.112Z,-0.60
2023-01-18T05:00:15.619Z,-0.64
2023-01-18T05:02:43.703Z,-0.65
2023-01-18T05:05:11.753Z,-0.62
2023-01-18T05:07:41.181Z,-0.60
2023-01-18T05:10:10.233Z,-0.57
2023-01-18T05:12:38.458Z,-0.53
2023-01-18T05:15:07.698Z,-0.56
2023-01-18T05:17:36.140Z,-0.52
2023-01-18T05:20:06.504Z,-0.49
2023-01-18T05:22:34.932Z,-0.53
2023-01-18T05:25:04.842Z,-0.51
2023-01-18T05:27:32.911Z,-0.53
2023-01-18T05:30:02.061Z,-0.50
2023-01-18T05:32:30.059Z,-0.53
2023-01-18T05:34:58.035Z,-0.53
2023-01-18T05:37:26.023Z,-0.53
2023-01-18T05:39:53.967Z,-0.52
2023-01-18T05:42:23.425Z,-0.53
2023-01-18T05:44:51.517Z,-0.60
2023-01-18T05:47:19.520Z,-0.53
2023-01-18T05:49:47.514Z,-0.54
2023-01-18T05:52:15.537Z,-0.62
2023-01-18T05:54:43.527Z,-0.62
2023-01-18T05:57:11.930Z,-0.57
2023-01-18T05:59:41.282Z,-0.57
2023-01-18T06:02:09.276Z,-0.56
2023-01-18T06:04:37.368Z,-0.61
2023-01-18T06:07:05.407Z,-0.61
2023-01-18T06:09:33.411Z,-0.63
2023-01-18T06:12:01.472Z,-0.64
2023-01-18T06:14:29.461Z,-0.59
2023-01-18T06:16:58.895Z,-0.61
2023-01-18T06:19:26.861Z,-0.66
2023-01-18T06:21:54.886Z,-0.66
2023-01-18T06:24:22.801Z,-0.68
2023-01-18T06:26:50.833Z,-0.65
2023-01-18T06:29:18.843Z,-0.66
2023-01-18T06:31:46.969Z,-0.64
2023-01-18T06:34:16.581Z,-0.69
2023-01-18T06:36:45.446Z,-0.66
2023-01-18T06:39:13.712Z,-0.62
2023-01-18T06:41:41.879Z,-0.63
2023-01-18T06:44:10.166Z,-0.58
2023-01-18T06:46:38.193Z,-0.61
2023-01-18T06:49:09.199Z,-0.59
2023-01-18T06:51:38.922Z,-0.56
2023-01-18T06:54:07.191Z,-0.57
2023-01-18T06:56:35.254Z,-0.58
2023-01-18T06:59:03.475Z,-0.60
2023-01-18T07:01:31.504Z,-0.57
2023-01-18T07:04:00.074Z,-0.56
2023-01-18T07:06:28.362Z,-0.56
2023-01-18T07:08:57.756Z,-0.61
2023-01-18T07:11:26.231Z,-0.58
2023-01-18T07:13:54.225Z,-0.69
2023-01-18T07:16:22.521Z,-0.60
2023-01-18T07:18:51.107Z,-0.62
2023-01-18T07:21:20.376Z,-0.58
2023-01-18T07:23:48.374Z,-0.66
2023-01-18T07:26:18.736Z,-0.56
2023-01-18T07:28:48.142Z,-0.58
2023-01-18T07:31:17.393Z,-0.59
2023-01-18T07:33:45.775Z,-0.55
2023-01-18T07:36:14.103Z,-0.55
2023-01-18T07:38:42.819Z,-0.56
2023-01-18T07:41:14.408Z,-0.55
2023-01-18T07:43:45.004Z,-0.54
2023-01-18T07:46:16.052Z,-0.59
2023-01-18T07:48:44.849Z,-0.58
2023-01-18T07:51:13.058Z,-0.58
2023-01-18T07:53:41.180Z,-0.55
2023-01-18T07:56:13.892Z,-0.60
2023-01-18T07:58:43.660Z,-0.54
2023-01-18T08:01:13.877Z,-0.51
2023-01-18T08:03:43.730Z,-0.58
2023-01-18T08:06:12.829Z,-0.52
2023-01-18T08:08:43.740Z,-0.54
2023-01-18T08:11:12.883Z,-0.55
2023-01-18T08:13:41.719Z,-0.56
2023-01-18T08:16:12.937Z,-0.52
2023-01-18T08:18:41.766Z,-0.50
2023-01-18T08:21:14.770Z,-0.53
2023-01-18T08:23:43.159Z,-0.53
2023-01-18T08:26:12.979Z,-0.47
2023-01-18T08:28:41.741Z,-0.53
2023-01-18T08:31:13.793Z,-0.47
2023-01-18T08:33:45.548Z,-0.47
2023-01-18T08:36:15.767Z,-0.45
2023-01-18T08:38:44.776Z,-0.42
2023-01-18T08:41:12.748Z,-0.41
2023-01-18T08:43:40.821Z,-0.38
2023-01-18T08:46:08.799Z,-0.39
2023-01-18T08:48:38.347Z,-0.41
2023-01-18T08:51:06.829Z,-0.32
2023-01-18T08:53:34.885Z,-0.30
2023-01-18T08:56:05.303Z,-0.30
2023-01-18T08:58:34.141Z,-0.29
2023-01-18T09:01:06.211Z,-0.25
2023-01-18T09:03:34.711Z,-0.22
2023-01-18T09:06:05.161Z,-0.18
2023-01-18T09:08:33.277Z,-0.13
2023-01-18T09:11:03.730Z,-0.17
2023-01-18T09:13:32.199Z,-0.05
2023-01-18T09:16:01.103Z,-0.03
2023-01-18T09:18:30.229Z,-0.03
2023-01-18T09:20:58.674Z,0.09
2023-01-18T09:23:28.631Z,0.13
2023-01-18T09:26:05.683Z,0.18
2023-01-18T09:28:37.358Z,0.25
2023-01-18T09:31:08.965Z,0.29
2023-01-18T09:33:43.993Z,0.36
2023-01-18T09:36:17.315Z,0.41
2023-01-18T09:38:47.663Z,0.42
2023-01-18T09:41:27.217Z,0.49
2023-01-18T09:43:58.341Z,0.56
2023-01-18T09:46:28.205Z,0.61
2023-01-18T09:48:59.101Z,0.69
2023-01-18T09:51:35.632Z,0.75
2023-01-18T09:54:17.063Z,0.80
2023-01-18T09:56:52.120Z,0.92
2023-01-18T09:59:28.626Z,0.91
2023-01-18T10:01:56.998Z,0.99
2023-01-18T10:04:30.967Z,1.07
2023-01-18T10:07:02.104Z,1.10
2023-01-18T10:09:38.133Z,1.19
2023-01-18T10:12:18.674Z,1.19
2023-01-18T10:14:53.335Z,1.31
2023-01-18T10:17:24.256Z,1.39
2023-01-18T10:19:52.784Z,1.43
2023-01-18T10:22:26.630Z,1.46
2023-01-18T10:25:02.627Z,1.55
2023-01-18T10:27:48.222Z,1.60
2023-01-18T10:30:52.540Z,1.67
2023-01-18T10:33:24.511Z,1.68
2023-01-18T10:35:56.309Z,1.74
2023-01-18T10:38:28.559Z,1.83
2023-01-18T10:41:01.055Z,1.85
2023-01-18T10:43:30.898Z,1.95
2023-01-18T10:45:59.466Z,2.02
2023-01-18T10:48:31.038Z,2.08
2023-01-18T10:51:00.932Z,2.12
2023-01-18T10:53:32.216Z,2.13
2023-01-18T10:56:05.922Z,2.25
2023-01-18T10:58:43.798Z,2.29
2023-01-18T11:01:17.272Z,2.37
2023-01-18T11:03:48.940Z,2.41
2023-01-18T11:06:19.347Z,2.42
2023-01-18T11:08:48.206Z,2.45
2023-01-18T11:11:48.504Z,2.46
2023-01-18T11:14:28.430Z,2.52
2023-01-18T11:17:01.276Z,2.55
2023-01-18T11:19:30.387Z,2.69
2023-01-18T11:21:58.484Z,2.73
2023-01-18T11:24:31.545Z,2.78
2023-01-18T11:27:03.081Z,2.77
2023-01-18T11:29:33.784Z,2.91
2023-01-18T11:32:05.459Z,2.91
2023-01-18T11:34:35.833Z,2.97
2023-01-18T11:37:04.942Z,2.97
2023-01-18T11:39:35.619Z,3.04
2023-01-18T11:42:27.585Z,3.01
2023-01-18T11:45:16.008Z,3.04
2023-01-18T11:47:55.409Z,3.04
2023-01-18T11:50:35.443Z,3.10
2023-01-18T11:53:17.289Z,3.17
2023-01-18T11:55:56.577Z,3.22
2023-01-18T11:58:30.053Z,3.26
2023-01-18T12:01:12.228Z,3.32
2023-01-18T12:03:56.278Z,3.35
2023-01-18T12:06:29.403Z,3.46
2023-01-18T12:09:11.090Z,3.49
2023-01-18T12:11:52.447Z,3.59
2023-01-18T12:14:32.213Z,3.62
2023-01-18T12:17:16.915Z,3.63
2023-01-18T12:20:03.902Z,3.67
2023-01-18T12:23:04.089Z,3.68
2023-01-18T12:26:03.256Z,3.62
2023-01-18T12:28:42.870Z,3.71
2023-01-18T12:31:26.726Z,3.83
2023-01-18T12:34:05.994Z,3.86
2023-01-18T12:36:52.324Z,3.81
2023-01-18T12:39:36.028Z,3.81
2023-01-18T12:42:06.459Z,3.75
2023-01-18T12:44:48.678Z,3.78
2023-01-18T12:47:32.909Z,3.84
2023-01-18T12:50:03.392Z,3.84
2023-01-18T12:52:36.876Z,3.91
2023-01-18T12:55:09.597Z,3.88
2023-01-18T12:57:37.977Z,3.90
2023-01-18T13:00:15.398Z,3.88
2023-01-18T13:02:49.642Z,3.94
2023-01-18T13:05:23.217Z,3.91
2023-01-18T13:07:58.452Z,3.96
2023-01-18T13:10:28.743Z,3.89
2023-01-18T13:12:58.774Z,4.00
2023-01-18T13:15:34.307Z,4.04
2023-01-18T13:18:09.787Z,4.07
2023-01-18T13:20:50.289Z,4.04
2023-01-18T13:23:32.259Z,4.08
2023-01-18T13:26:16.630Z,3.90
2023-01-18T13:28:49.735Z,3.83
2023-01-18T13:31:17.872Z,3.79
2023-01-18T13:34:00.737Z,3.81
2023-01-18T13:36:28.899Z,3.75
2023-01-18T13:39:01.279Z,3.77
2023-01-18T13:41:30.988Z,3.67
2023-01-18T13:44:07.724Z,3.59
2023-01-18T13:46:39.510Z,3.60
2023-01-18T13:49:37.582Z,3.67
2023-01-18T13:52:31.411Z,3.66
2023-01-18T13:55:06.263Z,3.58
2023-01-18T13:57:36.690Z,3.52
2023-01-18T14:00:07.555Z,3.58
2023-01-18T14:02:42.543Z,3.52
2023-01-18T14:05:25.130Z,3.49
2023-01-18T14:07:57.232Z,3.58
2023-01-18T14:10:30.583Z,3.51
2023-01-18T14:13:01.051Z,3.51
2023-01-18T14:15:48.268Z,3.50
2023-01-18T14:18:22.960Z,3.45
2023-01-18T14:21:06.296Z,3.39
2023-01-18T14:24:01.009Z,3.39
2023-01-18T14:26:31.484Z,3.39
2023-01-18T14:29:06.700Z,3.36
2023-01-18T14:31:39.148Z,3.37
2023-01-18T14:34:36.748Z,3.36
2023-01-18T14:37:28.909Z,3.35
2023-01-18T14:40:18.923Z,3.30
2023-01-18T14:42:50.639Z,3.26
2023-01-18T14:45:23.057Z,3.32
2023-01-18T14:47:51.299Z,3.28
2023-01-18T14:50:22.760Z,3.28
2023-01-18T14:52:54.027Z,3.30
2023-01-18T14:55:31.445Z,3.28
2023-01-18T14:58:05.767Z,3.28
2023-01-18T15:00:33.901Z,3.26
2023-01-18T15:03:03.033Z,3.25
2023-01-18T15:05:31.717Z,3.26
2023-01-18T15:08:01.273Z,3.32
2023-01-18T15:10:29.559Z,3.27
2023-01-18T15:13:00.372Z,3.21
2023-01-18T15:15:32.634Z,3.31
2023-01-18T15:18:10.505Z,3.30
2023-01-18T15:20:43.000Z,3.30
2023-01-18T15:23:14.164Z,3.24
2023-01-18T15:25:42.785Z,3.31
2023-01-18T15:28:23.548Z,3.29
2023-01-18T15:30:54.011Z,3.27
2023-01-18T15:33:38.369Z,3.26
2023-01-18T15:36:11.031Z,3.27
2023-01-18T15:38:41.221Z,3.27
2023-01-18T15:41:12.653Z,3.23
2023-01-18T15:43:44.160Z,3.25
2023-01-18T15:47:05.138Z,3.29
2023-01-18T15:49:33.745Z,3.27
2023-01-18T15:52:03.199Z,3.30
2023-01-18T15:54:36.879Z,3.26
2023-01-18T15:57:19.546Z,3.26
2023-01-18T15:59:49.548Z,3.27
2023-01-18T16:02:20.685Z,3.33
2023-01-18T16:04:49.318Z,3.32
2023-01-18T16:07:42.502Z,3.30
2023-01-18T16:10:28.024Z,3.21
2023-01-18T16:12:57.712Z,3.29
2023-01-18T16:15:28.359Z,3.23
2023-01-18T16:18:02.521Z,3.21
2023-01-18T16:20:32.505Z,3.19
2023-01-18T16:23:08.653Z,3.19
2023-01-18T16:25:38.974Z,3.17
2023-01-18T16:28:07.075Z,3.11
2023-01-18T16:30:38.957Z,3.14
2023-01-18T16:33:10.989Z,3.10
2023-01-18T16:35:40.036Z,3.01
2023-01-18T16:38:12.523Z,3.08
2023-01-18T16:40:44.165Z,3.11
2023-01-18T16:43:23.337Z,3.10
2023-01-18T16:45:52.883Z,3.12
2023-01-18T16:48:23.406Z,3.13
2023-01-18T16:50:52.169Z,3.08
2023-01-18T16:53:20.962Z,3.11
2023-01-18T16:55:50.454Z,3.14
2023-01-18T16:58:21.368Z,3.12
2023-01-18T17:00:58.825Z,3.04
2023-01-18T17:03:27.866Z,3.11
2023-01-18T17:05:58.890Z,3.07
2023-01-18T17:08:27.451Z,3.05
2023-01-18T17:10:57.733Z,3.11
2023-01-18T17:13:26.506Z,3.14
2023-01-18T17:15:54.955Z,3.13
2023-01-18T17:18:26.146Z,3.14
2023-01-18T17:20:55.749Z,3.22
2023-01-18T17:23:25.739Z,3.21
2023-01-18T17:25:54.123Z,3.19
2023-01-18T17:28:27.004Z,3.19
2023-01-18T17:30:55.798Z,3.16
2023-01-18T17:33:26.643Z,3.14
2023-01-18T17:35:55.968Z,3.17
2023-01-18T17:38:27.954Z,3.13
2023-01-18T17:40:57.941Z,3.14
2023-01-18T17:43:33.753Z,3.19
2023-01-18T17:46:04.526Z,3.17
2023-01-18T17:48:32.942Z,3.17
2023-01-18T17:51:01.214Z,3.24
2023-01-18T17:53:29.711Z,3.19
2023-01-18T17:55:57.950Z,3.22
2023-01-18T17:58:27.642Z,3.24
2023-01-18T18:00:56.005Z,3.17
2023-01-18T18:03:24.116Z,3.23
2023-01-18T18:06:14.431Z,3.16
2023-01-18T18:08:42.757Z,3.13
2023-01-18T18:11:12.434Z,3.16
2023-01-18T18:13:43.910Z,3.21
2023-01-18T18:16:18.315Z,3.12
2023-01-18T18:18:49.690Z,3.15
2023-01-18T18:21:18.572Z,3.10
2023-01-18T18:23:49.682Z,3.10
2023-01-18T18:26:17.761Z,3.09
2023-01-18T18:28:47.815Z,2.99
2023-01-18T18:31:17.013Z,2.95
2023-01-18T18:33:45.534Z,2.97
2023-01-18T18:36:13.666Z,2.95
2023-01-18T18:38:41.978Z,2.94
2023-01-18T18:41:10.521Z,2.91
2023-01-18T18:43:38.580Z,2.81
2023-01-18T18:46:08.885Z,2.87
2023-01-18T18:48:37.232Z,2.83
2023-01-18T18:51:05.579Z,2.72
2023-01-18T18:53:38.492Z,2.79
2023-01-18T18:56:10.117Z,2.73
2023-01-18T18:58:39.154Z,2.73
2023-01-18T19:01:18.555Z,2.69
2023-01-18T19:03:47.360Z,2.78
2023-01-18T19:06:18.624Z,2.78
2023-01-18T19:08:47.382Z,2.83
2023-01-18T19:11:19.956Z,2.82
2023-01-18T19:13:49.632Z,2.82
2023-01-18T19:16:20.220Z,2.83
2023-01-18T19:18:49.246Z,2.84
2023-01-18T19:21:18.583Z,2.81
2023-01-18T19:23:47.413Z,2.83
2023-01-18T19:26:16.762Z,2.82
2023-01-18T19:29:01.736Z,2.86
2023-01-18T19:31:39.195Z,2.88
2023-01-18T19:34:10.682Z,2.85
2023-01-18T19:36:39.903Z,2.79
2023-01-18T19:39:14.686Z,2.72
2023-01-18T19:41:50.532Z,2.75
2023-01-18T19:44:21.745Z,2.76
2023-01-18T19:46:57.004Z,2.80
2023-01-18T19:49:26.971Z,2.80
2023-01-18T19:51:55.858Z,2.73
2023-01-18T19:54:24.404Z,2.73
2023-01-18T19:56:53.255Z,2.76
2023-01-18T19:59:21.630Z,2.81
2023-01-18T20:01:52.761Z,2.85
2023-01-18T20:04:21.156Z,2.77
2023-01-18T20:06:49.530Z,2.78
2023-01-18T20:09:21.202Z,2.79
2023-01-18T20:11:51.921Z,2.77
2023-01-18T20:14:26.250Z,2.74
2023-01-18T20:17:00.610Z,2.78
2023-01-18T20:19:29.316Z,2.68
2023-01-18T20:21:58.509Z,2.68
2023-01-18T20:24:27.540Z,2.70
2023-01-18T20:27:07.268Z,2.71
2023-01-18T20:29:43.353Z,2.69
2023-01-18T20:32:17.756Z,2.65
2023-01-18T20:34:47.474Z,2.62
2023-01-18T20:37:17.133Z,2.68
2023-01-18T20:39:46.385Z,2.62
2023-01-18T20:42:15.753Z,2.61
2023-01-18T20:44:49.128Z,2.66
2023-01-18T20:47:18.804Z,2.64
2023-01-18T20:49:47.201Z,2.65
2023-01-18T20:52:15.946Z,2.74
2023-01-18T20:54:45.632Z,2.75
2023-01-18T20:57:17.012Z,2.76
2023-01-18T20:59:48.674Z,2.75
2023-01-18T21:02:20.867Z,2.77
2023-01-18T21:04:49.362Z,2.74
2023-01-18T21:07:17.693Z,2.76
2023-01-18T21:09:47.063Z,2.75
2023-01-18T21:12:15.802Z,2.82
2023-01-18T21:14:44.968Z,2.80
2023-01-18T21:17:13.307Z,2.78
2023-01-18T21:19:47.148Z,2.83
2023-01-18T21:22:16.624Z,2.76
2023-01-18T21:24:45.118Z,2.77
2023-01-18T21:27:14.610Z,2.82
2023-01-18T21:29:45.706Z,2.79
2023-01-18T21:32:14.229Z,2.84
2023-01-18T21:34:45.343Z,2.86
2023-01-18T21:37:14.236Z,2.85
2023-01-18T21:39:43.474Z,2.79
2023-01-18T21:42:30.704Z,2.85
2023-01-18T21:45:16.299Z,2.85
2023-01-18T21:47:46.029Z,2.86
2023-01-18T21:50:42.860Z,2.84
2023-01-18T21:53:35.835Z,2.86
2023-01-18T21:56:04.775Z,2.86
2023-01-18T21:58:51.719Z,2.87
2023-01-18T22:01:25.560Z,2.83
2023-01-18T22:04:13.269Z,2.84
2023-01-18T22:07:02.019Z,2.82
2023-01-18T22:09:34.839Z,2.88
2023-01-18T22:12:04.914Z,2.84
2023-01-18T22:14:36.060Z,2.85
2023-01-18T22:17:04.549Z,2.91
2023-01-18T22:19:36.631Z,2.85
2023-01-18T22:22:07.129Z,2.89
2023-01-18T22:24:36.135Z,2.87
2023-01-18T22:27:05.736Z,2.88
2023-01-18T22:29:34.528Z,2.93
2023-01-18T22:32:03.116Z,2.85
2023-01-18T22:34:31.783Z,2.93
2023-01-18T22:37:00.838Z,2.90
2023-01-18T22:39:31.187Z,2.91
2023-01-18T22:41:59.504Z,2.93
2023-01-18T22:44:28.322Z,2.93
2023-01-18T22:46:56.671Z,2.93
2023-01-18T22:49:24.773Z,2.94
2023-01-18T22:51:53.153Z,2.98
2023-01-18T22:54:23.176Z,3.00
2023-01-18T22:56:53.209Z,3.02
2023-01-18T22:59:21.553Z,2.99
2023-01-18T23:01:49.831Z,2.95
2023-01-18T23:04:19.317Z,2.95
2023-01-18T23:06:51.110Z,2.94
2023-01-18T23:09:19.761Z,2.94
2023-01-18T23:11:49.066Z,3.00
2023-01-18T23:14:36.593Z,2.99
2023-01-18T23:17:22.449Z,3.03
2023-01-18T23:19:50.641Z,2.98
2023-01-18T23:22:18.915Z,2.96
2023-01-18T23:24:47.393Z,2.97
2023-01-18T23:27:15.648Z,3.03
2023-01-18T23:29:46.756Z,3.00
2023-01-18T23:32:15.324Z,2.97
2023-01-18T23:34:50.900Z,2.93
2023-01-18T23:37:19.116Z,2.85
2023-01-18T23:40:04.746Z,2.89
2023-01-18T23:42:50.526Z,2.89
2023-01-18T23:45:38.240Z,2.95
2023-01-18T23:48:28.375Z,2.99
2023-01-18T23:51:13.999Z,2.99
2023-01-18T23:54:00.096Z,3.05
2023-01-18T23:56:29.913Z,2.97
2023-01-18T23:58:58.401Z,2.99
